createdAt,value
2018-12-06T00:00:52.834Z,15.03
2018-12-06T00:03:19.274Z,12.17
2018-12-06T00:05:45.926Z,13.97
2018-12-06T00:08:15.376Z,14.43
2018-12-06T00:10:42.336Z,11.80
2018-12-06T00:13:08.968Z,14.50
2018-12-06T00:15:35.607Z,17.73
2018-12-06T00:18:02.050Z,21.37
2018-12-06T00:20:28.502Z,16.97
2018-12-06T00:22:55.044Z,14.70
2018-12-06T00:25:21.524Z,18.00
2018-12-06T00:27:48.007Z,14.30
2018-12-06T00:30:20.599Z,14.97
2018-12-06T00:32:47.065Z,18.10
2018-12-06T00:35:13.752Z,19.00
2018-12-06T00:37:40.259Z,12.87
2018-12-06T00:40:06.687Z,17.67
2018-12-06T00:42:33.394Z,11.43
2018-12-06T00:45:00.319Z,14.27
2018-12-06T00:47:26.776Z,20.40
2018-12-06T00:49:53.632Z,12.47
2018-12-06T00:52:20.069Z,13.07
2018-12-06T00:54:46.653Z,19.90
2018-12-06T00:57:13.468Z,15.97
2018-12-06T00:59:39.957Z,16.70
2018-12-06T01:02:08.019Z,16.53
2018-12-06T01:04:34.455Z,10.90
2018-12-06T01:07:00.910Z,11.60
2018-12-06T01:09:27.402Z,15.00
2018-12-06T01:11:54.068Z,16.40
2018-12-06T01:14:22.531Z,14.03
2018-12-06T01:16:48.980Z,12.00
2018-12-06T01:19:15.519Z,23.17
2018-12-06T01:21:41.970Z,15.77
2018-12-06T01:24:08.438Z,14.30
2018-12-06T01:26:34.939Z,15.40
2018-12-06T01:29:01.392Z,14.63
2018-12-06T01:31:27.775Z,13.40
2018-12-06T01:33:54.243Z,11.83
2018-12-06T01:36:20.665Z,18.30
2018-12-06T01:38:47.566Z,16.90
2018-12-06T01:41:14.574Z,11.60
2018-12-06T01:43:41.166Z,18.53
2018-12-06T01:46:07.607Z,17.37
2018-12-06T01:48:34.311Z,15.13
2018-12-06T01:51:00.734Z,10.00
2018-12-06T01:53:27.213Z,11.90
2018-12-06T01:55:53.895Z,14.77
2018-12-06T01:58:20.352Z,16.17
2018-12-06T02:00:46.801Z,15.87
2018-12-06T02:03:14.627Z,13.13
2018-12-06T02:05:41.098Z,19.70
2018-12-06T02:08:07.566Z,13.97
2018-12-06T02:10:34.653Z,15.13
2018-12-06T02:13:01.158Z,15.67
2018-12-06T02:15:27.811Z,18.17
2018-12-06T02:17:54.556Z,17.50
2018-12-06T02:20:21.011Z,16.00
2018-12-06T02:22:47.466Z,15.27
2018-12-06T02:25:14.123Z,11.63
2018-12-06T02:27:40.546Z,15.03
2018-12-06T02:30:07.165Z,19.83
2018-12-06T02:32:33.878Z,13.90
2018-12-06T02:35:00.383Z,11.50
2018-12-06T02:37:26.897Z,12.40
2018-12-06T02:39:53.445Z,15.77
2018-12-06T02:42:19.991Z,18.60
2018-12-06T02:44:46.456Z,18.87
2018-12-06T02:47:13.170Z,10.37
2018-12-06T02:49:39.814Z,18.50
2018-12-06T02:52:06.335Z,13.50
2018-12-06T02:54:32.968Z,14.43
2018-12-06T02:56:59.397Z,15.50
2018-12-06T02:59:25.938Z,15.03
2018-12-06T03:01:52.895Z,13.50
2018-12-06T03:04:19.361Z,16.90
2018-12-06T03:06:45.889Z,16.83
2018-12-06T03:09:12.356Z,14.50
2018-12-06T03:11:38.841Z,17.37
2018-12-06T03:14:05.431Z,18.10
2018-12-06T03:16:32.207Z,16.13
2018-12-06T03:18:58.630Z,17.43
2018-12-06T03:21:25.181Z,16.47
2018-12-06T03:23:51.983Z,12.80
2018-12-06T03:26:18.464Z,15.33
2018-12-06T03:28:44.920Z,12.30
2018-12-06T03:31:11.627Z,12.40
2018-12-06T03:33:38.085Z,14.73
2018-12-06T03:36:04.556Z,11.80
2018-12-06T03:38:31.059Z,18.00
2018-12-06T03:40:57.528Z,15.03
2018-12-06T03:43:23.993Z,24.33
2018-12-06T03:45:50.515Z,12.77
2018-12-06T03:48:17.125Z,12.30
2018-12-06T03:50:43.643Z,11.30
2018-12-06T03:53:10.115Z,15.83
2018-12-06T03:55:36.638Z,10.93
2018-12-06T03:58:03.078Z,11.70
2018-12-06T04:00:29.576Z,9.10
2018-12-06T04:03:03.044Z,17.63
2018-12-06T04:05:29.518Z,14.07
2018-12-06T04:08:02.939Z,11.63
2018-12-06T04:10:29.422Z,19.77
2018-12-06T04:12:55.855Z,13.47
2018-12-06T04:15:22.340Z,12.90
2018-12-06T04:17:48.839Z,9.77
2018-12-06T04:20:15.310Z,10.47
2018-12-06T04:22:41.785Z,10.33
2018-12-06T04:25:08.222Z,8.60
2018-12-06T04:27:34.670Z,12.20
2018-12-06T04:30:01.225Z,11.67
2018-12-06T04:32:27.806Z,10.50
2018-12-06T04:34:54.297Z,8.83
2018-12-06T04:37:20.768Z,10.10
2018-12-06T04:39:47.241Z,14.13
2018-12-06T04:42:13.707Z,10.50
2018-12-06T04:44:40.438Z,11.33
2018-12-06T04:47:07.150Z,10.50
2018-12-06T04:49:33.567Z,15.53
2018-12-06T04:52:00.135Z,10.30
2018-12-06T04:54:26.851Z,12.90
2018-12-06T04:56:53.380Z,8.30
2018-12-06T04:59:19.834Z,18.40
2018-12-06T05:01:46.564Z,8.23
2018-12-06T05:04:13.021Z,12.83
2018-12-06T05:06:39.484Z,11.23
2018-12-06T05:09:06.015Z,12.53
2018-12-06T05:11:32.571Z,9.20
2018-12-06T05:13:59.030Z,16.03
2018-12-06T05:16:25.783Z,12.63
2018-12-06T05:18:52.335Z,21.13
2018-12-06T05:21:18.897Z,13.83
2018-12-06T05:23:45.369Z,7.33
2018-12-06T05:26:11.916Z,10.23
2018-12-06T05:28:38.476Z,12.77
2018-12-06T05:31:05.037Z,9.73
2018-12-06T05:33:31.458Z,11.87
2018-12-06T05:35:57.986Z,7.60
2018-12-06T05:38:24.904Z,13.90
2018-12-06T05:40:51.325Z,10.10
2018-12-06T05:43:17.787Z,13.00
2018-12-06T05:45:45.368Z,8.97
2018-12-06T05:48:11.798Z,10.17
2018-12-06T05:50:38.275Z,13.40
2018-12-06T05:53:05.038Z,9.63
2018-12-06T05:55:31.562Z,8.43
2018-12-06T05:57:57.986Z,8.30
2018-12-06T06:00:24.551Z,11.27
2018-12-06T06:02:50.975Z,10.37
2018-12-06T06:05:17.411Z,10.80
2018-12-06T06:07:43.994Z,12.93
2018-12-06T06:10:10.458Z,9.73
2018-12-06T06:12:36.908Z,8.87
2018-12-06T06:15:03.594Z,10.40
2018-12-06T06:17:29.960Z,12.20
2018-12-06T06:19:56.423Z,9.47
2018-12-06T06:22:23.196Z,11.17
2018-12-06T06:24:49.624Z,7.77
2018-12-06T06:27:16.132Z,12.00
2018-12-06T06:29:42.742Z,10.30
2018-12-06T06:32:09.203Z,11.97
2018-12-06T06:34:35.654Z,9.90
2018-12-06T06:37:02.316Z,12.00
2018-12-06T06:39:28.774Z,10.03
2018-12-06T06:41:55.237Z,11.13
2018-12-06T06:44:22.027Z,11.10
2018-12-06T06:46:48.724Z,11.07
2018-12-06T06:49:15.261Z,9.23
2018-12-06T06:51:41.821Z,11.23
2018-12-06T06:54:08.253Z,10.17
2018-12-06T06:56:34.964Z,15.90
2018-12-06T06:59:01.752Z,10.60
2018-12-06T07:01:28.206Z,12.23
2018-12-06T07:03:54.767Z,13.67
2018-12-06T07:06:21.533Z,11.53
2018-12-06T07:08:47.991Z,10.23
2018-12-06T07:11:14.446Z,16.47
2018-12-06T07:13:40.989Z,11.37
2018-12-06T07:16:07.451Z,10.80
2018-12-06T07:18:33.910Z,10.00
2018-12-06T07:21:00.416Z,17.57
2018-12-06T07:23:26.955Z,10.70
2018-12-06T07:25:53.449Z,9.73
2018-12-06T07:28:19.910Z,12.97
2018-12-06T07:30:46.847Z,12.20
2018-12-06T07:33:13.190Z,14.37
2018-12-06T07:35:39.668Z,12.33
2018-12-06T07:38:06.086Z,12.97
2018-12-06T07:40:32.636Z,10.17
2018-12-06T07:42:59.086Z,15.13
2018-12-06T07:45:25.633Z,12.33
2018-12-06T07:47:52.795Z,11.40
2018-12-06T07:50:19.691Z,13.10
2018-12-06T07:52:46.136Z,8.10
2018-12-06T07:55:12.612Z,13.17
2018-12-06T07:57:39.441Z,9.90
2018-12-06T08:00:07.113Z,12.10
2018-12-06T08:02:33.595Z,9.50
2018-12-06T08:05:00.088Z,10.03
2018-12-06T08:07:26.561Z,6.93
2018-12-06T08:09:53.032Z,8.60
2018-12-06T08:12:19.798Z,11.17
2018-12-06T08:14:46.311Z,14.10
2018-12-06T08:17:12.767Z,13.57
2018-12-06T08:19:39.291Z,9.47
2018-12-06T08:22:05.774Z,10.90
2018-12-06T08:24:32.175Z,10.03
2018-12-06T08:26:58.631Z,8.50
2018-12-06T08:29:25.826Z,8.80
2018-12-06T08:31:52.274Z,10.50
2018-12-06T08:34:19.108Z,8.50
2018-12-06T08:36:45.585Z,9.50
2018-12-06T08:39:12.044Z,9.27
2018-12-06T08:41:38.525Z,8.00
2018-12-06T08:44:04.949Z,10.77
2018-12-06T08:46:31.311Z,8.37
2018-12-06T08:49:03.025Z,9.40
2018-12-06T08:51:26.689Z,15.60
2018-12-06T08:53:53.153Z,14.43
2018-12-06T08:56:19.599Z,24.40
2018-12-06T08:58:46.063Z,34.20
2018-12-06T09:01:12.604Z,15.33
2018-12-06T09:03:39.666Z,24.87
2018-12-06T09:06:08.068Z,19.83
2018-12-06T09:08:34.593Z,29.47
2018-12-06T09:11:01.044Z,11.47
2018-12-06T09:13:27.548Z,25.17
2018-12-06T09:15:54.059Z,26.10
2018-12-06T09:18:20.592Z,16.73
2018-12-06T09:20:47.060Z,12.07
2018-12-06T09:23:13.517Z,16.10
2018-12-06T09:25:40.009Z,15.37
2018-12-06T09:28:06.502Z,10.13
2018-12-06T09:30:32.960Z,26.67
2018-12-06T09:32:59.598Z,17.13
2018-12-06T09:35:27.059Z,13.50
2018-12-06T09:37:53.487Z,11.20
2018-12-06T09:40:19.965Z,11.63
2018-12-06T09:42:46.524Z,11.13
2018-12-06T09:45:12.967Z,11.30
2018-12-06T09:47:39.765Z,11.90
2018-12-06T09:50:06.196Z,11.23
2018-12-06T09:52:32.755Z,8.27
2018-12-06T09:54:59.195Z,10.60
2018-12-06T09:57:25.649Z,13.30
2018-12-06T09:59:52.139Z,13.03
2018-12-06T10:02:18.916Z,13.13
2018-12-06T10:04:45.372Z,12.70
2018-12-06T10:07:11.936Z,12.47
2018-12-06T10:09:38.432Z,12.40
2018-12-06T10:12:04.967Z,11.60
2018-12-06T10:14:31.443Z,15.03
2018-12-06T10:16:58.248Z,13.63
2018-12-06T10:19:24.663Z,10.57
2018-12-06T10:21:51.202Z,10.00
2018-12-06T10:24:17.747Z,14.93
2018-12-06T10:26:44.226Z,12.90
2018-12-06T10:29:10.700Z,20.77
2018-12-06T10:31:37.602Z,8.60
2018-12-06T10:34:04.377Z,10.20
2018-12-06T10:36:30.874Z,12.00
2018-12-06T10:38:57.664Z,14.70
2018-12-06T10:41:24.095Z,9.60
2018-12-06T10:43:50.619Z,13.93
2018-12-06T10:46:19.164Z,10.73
2018-12-06T10:48:45.591Z,14.03
2018-12-06T10:51:18.169Z,13.60
2018-12-06T10:53:45.068Z,9.97
2018-12-06T10:56:11.540Z,14.17
2018-12-06T10:58:38.036Z,9.33
2018-12-06T11:01:07.522Z,11.33
2018-12-06T11:03:36.019Z,12.90
2018-12-06T11:06:02.448Z,10.00
2018-12-06T11:08:29.174Z,12.20
2018-12-06T11:10:55.706Z,13.13
2018-12-06T11:13:22.365Z,15.80
2018-12-06T11:15:48.803Z,11.40
2018-12-06T11:18:15.357Z,15.70
2018-12-06T11:20:49.070Z,13.40
2018-12-06T11:23:15.517Z,12.57
2018-12-06T11:25:41.960Z,18.10
2018-12-06T11:28:08.611Z,10.93
2018-12-06T11:30:35.151Z,14.70
2018-12-06T11:33:01.624Z,15.67
2018-12-06T11:35:28.177Z,16.53
2018-12-06T11:37:54.594Z,16.30
2018-12-06T11:40:21.010Z,16.67
2018-12-06T11:42:47.863Z,13.77
2018-12-06T11:45:14.342Z,10.23
2018-12-06T11:47:40.911Z,10.33
2018-12-06T11:50:08.479Z,12.27
2018-12-06T11:52:34.914Z,10.57
2018-12-06T11:55:01.507Z,14.13
2018-12-06T11:57:28.108Z,15.47
2018-12-06T11:59:54.691Z,15.70
2018-12-06T12:02:21.136Z,14.37
2018-12-06T12:04:48.128Z,12.30
2018-12-06T12:07:14.655Z,13.33
2018-12-06T12:09:41.221Z,10.30
2018-12-06T12:12:07.747Z,13.50
2018-12-06T12:14:34.325Z,12.90
2018-12-06T12:17:00.976Z,15.03
2018-12-06T12:19:27.635Z,11.43
2018-12-06T12:21:54.176Z,12.20
2018-12-06T12:24:20.716Z,11.30
2018-12-06T12:26:48.251Z,16.73
2018-12-06T12:29:15.716Z,13.50
2018-12-06T12:31:42.177Z,15.13
2018-12-06T12:34:08.747Z,16.53
2018-12-06T12:36:35.244Z,11.10
2018-12-06T12:39:02.002Z,14.70
2018-12-06T12:41:28.503Z,11.20
2018-12-06T12:43:55.084Z,15.33
2018-12-06T12:46:21.582Z,13.30
2018-12-06T12:48:48.452Z,16.50
2018-12-06T12:51:14.922Z,15.07
2018-12-06T12:54:10.295Z,14.33
2018-12-06T12:56:36.761Z,16.17
2018-12-06T12:59:03.331Z,23.83
2018-12-06T13:01:29.867Z,15.03
2018-12-06T13:03:56.319Z,12.83
2018-12-06T13:06:23.122Z,17.30
2018-12-06T13:08:49.943Z,14.67
2018-12-06T13:11:16.591Z,13.03
2018-12-06T13:13:43.175Z,15.50
2018-12-06T13:16:10.035Z,14.57
2018-12-06T13:18:36.503Z,11.70
2018-12-06T13:21:04.534Z,11.77
2018-12-06T13:23:31.007Z,18.17
2018-12-06T13:25:57.478Z,17.03
2018-12-06T13:28:26.995Z,17.90
2018-12-06T13:30:53.827Z,12.73
2018-12-06T13:33:20.427Z,16.43
2018-12-06T13:35:46.911Z,18.17
2018-12-06T13:38:13.742Z,15.43
2018-12-06T13:40:40.186Z,18.33
2018-12-06T13:43:06.638Z,17.67
2018-12-06T13:45:33.087Z,17.20
2018-12-06T13:47:59.578Z,20.83
2018-12-06T13:50:26.132Z,17.17
2018-12-06T13:52:52.660Z,14.30
2018-12-06T13:55:19.180Z,19.03
2018-12-06T13:57:45.723Z,16.17
2018-12-06T14:00:12.562Z,15.83
2018-12-06T14:02:39.116Z,17.30
2018-12-06T14:05:05.610Z,14.60
2018-12-06T14:07:32.078Z,13.50
2018-12-06T14:09:58.582Z,13.30
2018-12-06T14:12:25.050Z,17.97
2018-12-06T14:14:51.808Z,15.40
2018-12-06T14:17:19.625Z,14.10
2018-12-06T14:19:46.195Z,14.90
2018-12-06T14:22:12.729Z,16.47
2018-12-06T14:24:39.159Z,18.73
2018-12-06T14:27:06.320Z,16.00
2018-12-06T14:29:33.143Z,15.60
2018-12-06T14:31:59.688Z,16.50
2018-12-06T14:34:26.279Z,21.50
2018-12-06T14:37:01.573Z,16.17
2018-12-06T14:39:21.746Z,23.23
2018-12-06T14:41:48.240Z,20.23
2018-12-06T14:44:14.695Z,18.90
2018-12-06T14:46:41.111Z,17.60
2018-12-06T14:49:07.635Z,19.17
2018-12-06T14:51:34.445Z,20.13
2018-12-06T14:54:01.012Z,22.23
2018-12-06T14:56:27.452Z,19.10
2018-12-06T14:58:54.257Z,14.23
2018-12-06T15:01:20.721Z,22.40
2018-12-06T15:03:47.175Z,17.33
2018-12-06T15:06:13.951Z,18.30
2018-12-06T15:08:40.738Z,18.30
2018-12-06T15:11:07.514Z,17.03
2018-12-06T15:13:35.757Z,15.60
2018-12-06T15:16:02.543Z,16.60
2018-12-06T15:18:29.075Z,18.70
2018-12-06T15:20:55.858Z,20.80
2018-12-06T15:23:22.339Z,21.50
2018-12-06T15:25:48.814Z,20.83
2018-12-06T15:28:15.459Z,19.80
2018-12-06T15:30:41.968Z,25.27
2018-12-06T15:33:08.419Z,20.37
2018-12-06T15:35:34.984Z,18.70
2018-12-06T15:38:01.414Z,23.27
2018-12-06T15:40:27.874Z,26.33
2018-12-06T15:42:54.364Z,18.97
2018-12-06T15:45:20.872Z,20.93
2018-12-06T15:47:47.350Z,18.80
2018-12-06T15:50:14.259Z,21.67
2018-12-06T15:52:40.712Z,19.57
2018-12-06T15:55:07.134Z,22.00
2018-12-06T15:57:34.817Z,21.80
2018-12-06T16:00:01.327Z,24.60
2018-12-06T16:02:27.793Z,22.93
2018-12-06T16:04:54.321Z,28.53
2018-12-06T16:07:20.839Z,22.40
2018-12-06T16:09:47.351Z,26.90
2018-12-06T16:12:14.072Z,25.47
2018-12-06T16:14:40.537Z,32.87
2018-12-06T16:17:07.026Z,32.83
2018-12-06T16:19:33.814Z,25.00
2018-12-06T16:22:00.255Z,31.77
2018-12-06T16:24:26.712Z,31.73
2018-12-06T16:26:53.389Z,30.97
2018-12-06T16:29:19.841Z,36.90
2018-12-06T16:31:46.310Z,36.53
2018-12-06T16:34:13.067Z,37.10
2018-12-06T16:36:39.530Z,37.87
2018-12-06T16:39:05.999Z,39.93
2018-12-06T16:41:32.648Z,38.57
2018-12-06T16:43:59.179Z,34.30
2018-12-06T16:46:25.798Z,34.23
2018-12-06T16:48:52.579Z,35.67
2018-12-06T16:51:19.108Z,37.00
2018-12-06T16:53:45.686Z,40.60
2018-12-06T16:56:12.470Z,35.57
2018-12-06T16:58:38.989Z,36.00
2018-12-06T17:01:05.548Z,35.33
2018-12-06T17:03:32.034Z,37.20
2018-12-06T17:05:59.131Z,36.47
2018-12-06T17:08:25.694Z,33.43
2018-12-06T17:10:52.174Z,35.47
2018-12-06T17:13:18.598Z,38.90
2018-12-06T17:15:45.051Z,37.83
2018-12-06T17:18:11.728Z,33.57
2018-12-06T17:20:38.194Z,47.63
2018-12-06T17:23:04.646Z,37.60
2018-12-06T17:25:31.557Z,33.07
2018-12-06T17:27:58.334Z,34.17
2018-12-06T17:30:24.802Z,37.03
2018-12-06T17:32:51.578Z,37.00
2018-12-06T17:35:19.090Z,34.13
2018-12-06T17:37:45.577Z,33.70
2018-12-06T17:40:12.358Z,38.30
2018-12-06T17:42:38.934Z,44.23
2018-12-06T17:45:06.144Z,33.10
2018-12-06T17:47:32.826Z,33.47
2018-12-06T17:49:59.319Z,35.63
2018-12-06T17:52:25.780Z,38.80
2018-12-06T17:54:52.559Z,37.70
2018-12-06T17:57:18.998Z,38.27
2018-12-06T17:59:45.486Z,36.50
2018-12-06T18:02:11.960Z,38.37
2018-12-06T18:04:38.405Z,36.47
2018-12-06T18:07:04.866Z,35.50
2018-12-06T18:09:31.855Z,37.83
2018-12-06T18:11:58.343Z,34.87
2018-12-06T18:14:24.979Z,35.63
2018-12-06T18:16:51.863Z,39.30
2018-12-06T18:19:18.306Z,34.73
2018-12-06T18:21:44.964Z,35.10
2018-12-06T18:24:18.383Z,37.07
2018-12-06T18:26:40.020Z,35.60
2018-12-06T18:29:06.484Z,39.73
2018-12-06T18:31:33.015Z,38.17
2018-12-06T18:33:59.552Z,28.97
2018-12-06T18:36:26.023Z,31.40
2018-12-06T18:38:52.741Z,33.67
2018-12-06T18:41:19.204Z,35.57
2018-12-06T18:43:46.497Z,33.23
2018-12-06T18:46:13.278Z,35.67
2018-12-06T18:48:39.710Z,33.67
2018-12-06T18:51:06.143Z,34.13
2018-12-06T18:53:32.596Z,34.73
2018-12-06T18:55:59.463Z,33.20
2018-12-06T18:58:25.927Z,38.67
2018-12-06T19:00:52.987Z,36.33
2018-12-06T19:03:19.514Z,32.33
2018-12-06T19:05:45.944Z,36.03
2018-12-06T19:08:12.630Z,37.50
2018-12-06T19:10:39.145Z,36.40
2018-12-06T19:13:07.692Z,35.40
2018-12-06T19:15:34.431Z,37.50
2018-12-06T19:18:00.933Z,30.63
2018-12-06T19:20:27.451Z,30.03
2018-12-06T19:22:55.533Z,34.10
2018-12-06T19:25:22.966Z,37.20
2018-12-06T19:27:49.454Z,35.20
2018-12-06T19:30:16.261Z,34.97
2018-12-06T19:32:42.782Z,39.57
2018-12-06T19:35:10.216Z,39.87
2018-12-06T19:37:37.116Z,39.60
2018-12-06T19:40:03.838Z,42.70
2018-12-06T19:42:30.410Z,40.90
2018-12-06T19:44:57.076Z,34.50
2018-12-06T19:47:23.523Z,44.13
2018-12-06T19:49:50.220Z,38.83
2018-12-06T19:52:16.852Z,53.50
2018-12-06T19:54:43.327Z,35.20
2018-12-06T19:57:10.143Z,41.90
2018-12-06T19:59:36.748Z,32.00
2018-12-06T20:02:03.372Z,41.60
2018-12-06T20:04:30.852Z,50.60
2018-12-06T20:06:57.456Z,43.23
2018-12-06T20:09:23.954Z,35.67
2018-12-06T20:11:50.465Z,45.37
2018-12-06T20:14:17.464Z,36.07
2018-12-06T20:16:43.995Z,33.83
2018-12-06T20:19:10.590Z,32.97
2018-12-06T20:21:37.350Z,33.30
2018-12-06T20:24:03.804Z,35.93
2018-12-06T20:26:30.243Z,31.70
2018-12-06T20:28:57.039Z,31.70
2018-12-06T20:31:23.516Z,37.73
2018-12-06T20:33:49.948Z,33.77
2018-12-06T20:36:16.450Z,38.53
2018-12-06T20:38:43.083Z,31.70
2018-12-06T20:41:10.132Z,42.73
2018-12-06T20:43:38.455Z,40.87
2018-12-06T20:48:49.435Z,39.10
2018-12-06T20:51:16.125Z,39.80
2018-12-06T20:53:42.766Z,50.67
2018-12-06T20:56:10.364Z,47.10
2018-12-06T20:58:36.951Z,49.10
2018-12-06T21:01:03.575Z,55.83
2018-12-06T21:03:30.227Z,51.37
2018-12-06T21:05:56.888Z,60.60
2018-12-06T21:08:23.471Z,57.37
2018-12-06T21:10:51.168Z,52.90
2018-12-06T21:13:17.759Z,59.70
2018-12-06T21:15:44.218Z,50.30
2018-12-06T21:18:10.761Z,49.57
2018-12-06T21:20:37.255Z,52.43
2018-12-06T21:23:04.027Z,52.33
2018-12-06T21:25:30.872Z,49.23
2018-12-06T21:27:57.437Z,65.47
2018-12-06T21:30:24.233Z,52.30
2018-12-06T21:32:51.208Z,52.73
2018-12-06T21:35:17.667Z,54.93
2018-12-06T21:37:45.382Z,41.20
2018-12-06T21:40:12.732Z,54.00
2018-12-06T21:42:39.285Z,44.47
2018-12-06T21:45:05.759Z,42.03
2018-12-06T21:47:32.304Z,50.57
2018-12-06T21:49:58.773Z,76.63
2018-12-06T21:52:26.411Z,51.17
2018-12-06T21:54:53.370Z,54.67
2018-12-06T21:57:19.937Z,52.67
2018-12-06T21:59:46.825Z,63.90
2018-12-06T22:02:23.701Z,56.73
2018-12-06T22:04:51.562Z,46.10
2018-12-06T22:07:18.875Z,58.53
2018-12-06T22:09:45.503Z,46.87
2018-12-06T22:12:12.016Z,54.80
2018-12-06T22:14:38.538Z,49.13
2018-12-06T22:17:05.529Z,60.00
2018-12-06T22:19:32.039Z,75.77
2018-12-06T22:21:58.690Z,69.80
2018-12-06T22:24:25.521Z,45.50
2018-12-06T22:26:52.584Z,48.80
2018-12-06T22:29:19.810Z,58.17
2018-12-06T22:31:46.580Z,58.63
2018-12-06T22:34:13.082Z,47.23
2018-12-06T22:36:39.539Z,50.30
2018-12-06T22:39:07.181Z,52.80
2018-12-06T22:41:34.360Z,44.57
2018-12-06T22:44:00.803Z,46.03
2018-12-06T22:46:27.458Z,46.67
2018-12-06T22:48:56.387Z,45.40
2018-12-06T22:51:24.477Z,51.10
2018-12-06T22:53:51.331Z,56.30
2018-12-06T22:56:17.868Z,41.80
2018-12-06T22:58:44.298Z,38.03
2018-12-06T23:01:11.467Z,44.00
2018-12-06T23:03:38.496Z,46.00
2018-12-06T23:06:04.921Z,46.40
2018-12-06T23:08:31.475Z,46.30
2018-12-06T23:10:57.954Z,40.77
2018-12-06T23:13:24.346Z,38.60
2018-12-06T23:15:50.897Z,32.67
2018-12-06T23:18:17.426Z,36.70
2018-12-06T23:20:43.992Z,32.20
2018-12-06T23:23:10.836Z,30.67
2018-12-06T23:25:37.297Z,30.00
2018-12-06T23:28:04.133Z,33.20
2018-12-06T23:30:31.848Z,32.83
2018-12-06T23:32:58.468Z,29.93
2018-12-06T23:35:24.991Z,29.67
2018-12-06T23:37:51.896Z,33.63
2018-12-06T23:40:18.401Z,34.40
2018-12-06T23:42:44.847Z,33.13
2018-12-06T23:45:11.435Z,32.73
2018-12-06T23:47:38.003Z,26.33
2018-12-06T23:50:04.756Z,31.33
2018-12-06T23:52:31.392Z,32.47
2018-12-06T23:54:57.838Z,26.50
2018-12-06T23:57:24.292Z,28.73
2018-12-06T23:59:51.353Z,30.97
